createdAt,value
2022-10-07T00:00:34.167Z,14.18
2022-10-07T00:02:56.699Z,14.13
2022-10-07T00:05:19.283Z,14.12
2022-10-07T00:07:42.309Z,14.00
2022-10-07T00:10:05.627Z,14.05
2022-10-07T00:12:28.946Z,13.98
2022-10-07T00:14:51.458Z,14.04
2022-10-07T00:17:14.056Z,13.88
2022-10-07T00:19:37.118Z,13.88
2022-10-07T00:21:59.655Z,13.88
2022-10-07T00:24:22.176Z,13.92
2022-10-07T00:26:44.667Z,13.70
2022-10-07T00:29:07.754Z,13.78
2022-10-07T00:31:34.308Z,13.75
2022-10-07T00:33:58.627Z,13.74
2022-10-07T00:36:26.488Z,13.88
2022-10-07T00:38:53.877Z,13.86
2022-10-07T00:41:19.775Z,13.82
2022-10-07T00:43:42.373Z,13.89
2022-10-07T00:46:11.406Z,13.84
2022-10-07T00:48:35.539Z,13.84
2022-10-07T00:51:00.252Z,13.73
2022-10-07T00:53:25.937Z,13.70
2022-10-07T00:55:48.694Z,13.70
2022-10-07T00:58:11.682Z,13.70
2022-10-07T01:00:34.286Z,13.70
2022-10-07T01:02:56.767Z,13.65
2022-10-07T01:05:20.850Z,13.55
2022-10-07T01:07:46.728Z,13.48
2022-10-07T01:10:12.012Z,13.47
2022-10-07T01:12:34.560Z,13.50
2022-10-07T01:15:08.999Z,13.36
2022-10-07T01:17:49.179Z,13.23
2022-10-07T01:20:32.120Z,13.09
2022-10-07T01:22:57.456Z,13.20
2022-10-07T01:25:38.497Z,13.27
2022-10-07T01:28:08.138Z,13.36
2022-10-07T01:30:33.392Z,13.33
2022-10-07T01:33:04.434Z,13.30
2022-10-07T01:35:32.751Z,13.34
2022-10-07T01:38:00.481Z,13.28
2022-10-07T01:40:27.680Z,13.26
2022-10-07T01:42:52.027Z,13.24
2022-10-07T01:45:21.217Z,13.24
2022-10-07T01:47:43.956Z,13.16
2022-10-07T01:50:17.002Z,13.17
2022-10-07T01:52:51.575Z,13.17
2022-10-07T01:55:47.569Z,13.07
2022-10-07T01:58:16.379Z,13.06
2022-10-07T02:00:45.976Z,13.02
2022-10-07T02:03:31.025Z,13.03
2022-10-07T02:06:19.959Z,13.00
2022-10-07T02:08:48.953Z,12.98
2022-10-07T02:11:22.005Z,12.96
2022-10-07T02:14:20.504Z,12.93
2022-10-07T02:16:46.934Z,12.91
2022-10-07T02:19:35.739Z,12.88
2022-10-07T02:22:02.098Z,12.87
2022-10-07T02:24:28.570Z,12.82
2022-10-07T02:26:54.387Z,12.78
2022-10-07T02:29:21.067Z,12.79
2022-10-07T02:31:48.447Z,12.78
2022-10-07T02:34:19.565Z,12.72
2022-10-07T02:36:47.786Z,12.71
2022-10-07T02:39:11.532Z,12.67
2022-10-07T02:41:50.444Z,12.62
2022-10-07T02:44:35.316Z,12.67
2022-10-07T02:47:10.736Z,12.81
2022-10-07T02:49:39.277Z,12.79
2022-10-07T02:52:06.578Z,12.75
2022-10-07T02:54:45.876Z,12.74
2022-10-07T02:57:10.855Z,12.69
2022-10-07T02:59:35.968Z,12.74
2022-10-07T03:02:02.519Z,12.75
2022-10-07T03:04:25.134Z,12.69
2022-10-07T03:06:47.803Z,12.69
2022-10-07T03:09:11.371Z,12.67
2022-10-07T03:11:35.356Z,12.62
2022-10-07T03:13:58.526Z,12.65
2022-10-07T03:16:21.664Z,12.54
2022-10-07T03:18:46.280Z,12.54
2022-10-07T03:21:29.418Z,12.54
2022-10-07T03:23:54.680Z,12.33
2022-10-07T03:26:21.635Z,12.33
2022-10-07T03:28:45.882Z,12.40
2022-10-07T03:31:11.887Z,12.34
2022-10-07T03:33:39.569Z,12.29
2022-10-07T03:36:08.270Z,12.24
2022-10-07T03:38:32.476Z,12.23
2022-10-07T03:40:55.032Z,12.23
2022-10-07T03:43:18.238Z,12.30
2022-10-07T03:45:50.869Z,12.24
2022-10-07T03:48:13.551Z,12.21
2022-10-07T03:50:36.641Z,12.21
2022-10-07T03:52:59.260Z,12.20
2022-10-07T03:55:22.393Z,12.21
2022-10-07T03:57:54.311Z,12.19
2022-10-07T04:00:22.505Z,12.17
2022-10-07T04:02:50.229Z,12.16
2022-10-07T04:05:17.923Z,12.16
2022-10-07T04:07:41.101Z,12.07
2022-10-07T04:10:03.900Z,12.14
2022-10-07T04:12:26.778Z,12.13
2022-10-07T04:14:50.538Z,12.10
2022-10-07T04:17:14.332Z,12.10
2022-10-07T04:19:37.898Z,12.14
2022-10-07T04:22:07.626Z,12.13
2022-10-07T04:24:31.263Z,12.10
2022-10-07T04:26:54.000Z,12.09
2022-10-07T04:29:17.282Z,12.16
2022-10-07T04:31:41.238Z,12.10
2022-10-07T04:34:04.579Z,12.16
2022-10-07T04:36:31.160Z,12.14
2022-10-07T04:39:05.383Z,12.16
2022-10-07T04:41:31.659Z,12.21
2022-10-07T04:43:57.574Z,12.14
2022-10-07T04:46:22.261Z,12.19
2022-10-07T04:48:50.494Z,12.20
2022-10-07T04:51:18.443Z,12.12
2022-10-07T04:53:45.054Z,12.14
2022-10-07T04:56:08.250Z,12.17
2022-10-07T04:58:31.722Z,12.09
2022-10-07T05:00:55.790Z,12.02
2022-10-07T05:03:21.705Z,12.04
2022-10-07T05:05:47.631Z,12.04
2022-10-07T05:08:11.258Z,11.96
2022-10-07T05:10:36.515Z,11.96
2022-10-07T05:12:59.095Z,11.99
2022-10-07T05:15:21.650Z,12.04
2022-10-07T05:17:44.600Z,12.06
2022-10-07T05:20:09.034Z,12.00
2022-10-07T05:22:33.514Z,12.03
2022-10-07T05:24:56.259Z,12.06
2022-10-07T05:27:19.127Z,12.06
2022-10-07T05:29:41.869Z,12.16
2022-10-07T05:32:28.004Z,12.26
2022-10-07T05:34:52.297Z,12.41
2022-10-07T05:37:15.309Z,12.45
2022-10-07T05:39:39.789Z,12.55
2022-10-07T05:42:13.774Z,12.68
2022-10-07T05:44:44.295Z,12.85
2022-10-07T05:47:08.582Z,12.95
2022-10-07T05:49:31.389Z,12.96
2022-10-07T05:51:54.627Z,13.02
2022-10-07T05:54:18.478Z,13.17
2022-10-07T05:56:41.858Z,13.24
2022-10-07T05:59:05.492Z,13.27
2022-10-07T06:01:28.482Z,13.46
2022-10-07T06:03:57.421Z,13.50
2022-10-07T06:06:23.795Z,13.67
2022-10-07T06:08:48.106Z,13.79
2022-10-07T06:11:31.612Z,13.91
2022-10-07T06:13:55.264Z,13.94
2022-10-07T06:16:17.963Z,14.01
2022-10-07T06:18:41.002Z,14.08
2022-10-07T06:21:04.813Z,14.22
2022-10-07T06:23:29.145Z,14.19
2022-10-07T06:25:56.881Z,14.16
2022-10-07T06:28:20.829Z,14.28
2022-10-07T06:30:44.802Z,14.18
2022-10-07T06:33:07.447Z,14.09
2022-10-07T06:35:30.680Z,14.25
2022-10-07T06:37:53.827Z,14.39
2022-10-07T06:40:17.008Z,14.64
2022-10-07T06:42:39.712Z,14.66
2022-10-07T06:45:26.957Z,14.83
2022-10-07T06:47:49.904Z,14.77
2022-10-07T06:50:12.559Z,14.95
2022-10-07T06:52:37.089Z,15.04
2022-10-07T06:55:01.651Z,15.19
2022-10-07T06:57:44.733Z,15.14
2022-10-07T07:00:10.050Z,15.40
2022-10-07T07:02:35.808Z,14.97
2022-10-07T07:04:59.833Z,14.89
2022-10-07T07:07:24.949Z,14.92
2022-10-07T07:09:48.656Z,15.14
2022-10-07T07:12:11.277Z,15.28
2022-10-07T07:14:37.987Z,15.46
2022-10-07T07:17:05.532Z,15.56
2022-10-07T07:19:28.570Z,15.57
2022-10-07T07:21:52.276Z,15.70
2022-10-07T07:24:17.300Z,15.63
2022-10-07T07:26:41.936Z,15.63
2022-10-07T07:29:06.962Z,16.01
2022-10-07T07:31:37.591Z,17.10
2022-10-07T07:34:03.678Z,17.76
2022-10-07T07:36:29.414Z,18.77
2022-10-07T07:38:57.482Z,19.44
2022-10-07T07:41:32.769Z,19.33
2022-10-07T07:43:59.306Z,19.93
2022-10-07T07:46:23.956Z,20.12
2022-10-07T07:48:47.108Z,20.04
2022-10-07T07:51:10.914Z,20.37
2022-10-07T07:53:34.433Z,19.75
2022-10-07T07:55:57.623Z,19.44
2022-10-07T07:58:23.178Z,18.72
2022-10-07T08:00:56.894Z,18.11
2022-10-07T08:03:19.926Z,18.04
2022-10-07T08:05:42.552Z,17.71
2022-10-07T08:08:05.219Z,17.62
2022-10-07T08:10:29.085Z,17.63
2022-10-07T08:12:51.665Z,17.63
2022-10-07T08:15:15.182Z,17.51
2022-10-07T08:17:38.422Z,17.66
2022-10-07T08:20:02.580Z,17.65
2022-10-07T08:22:25.385Z,17.83
2022-10-07T08:24:48.861Z,17.97
2022-10-07T08:27:13.270Z,17.90
2022-10-07T08:29:35.809Z,18.01
2022-10-07T08:31:58.571Z,17.90
2022-10-07T08:34:21.190Z,17.76
2022-10-07T08:36:50.445Z,17.78
2022-10-07T08:39:15.020Z,17.76
2022-10-07T08:42:01.271Z,17.72
2022-10-07T08:44:29.064Z,17.68
2022-10-07T08:47:20.445Z,17.82
2022-10-07T08:49:54.081Z,18.00
2022-10-07T08:52:26.540Z,18.13
2022-10-07T08:54:49.570Z,18.33
2022-10-07T08:57:23.390Z,18.38
2022-10-07T08:59:53.345Z,18.11
2022-10-07T09:02:27.481Z,18.17
2022-10-07T09:05:17.048Z,18.23
2022-10-07T09:07:48.206Z,18.37
2022-10-07T09:10:26.429Z,18.58
2022-10-07T09:13:33.738Z,18.52
2022-10-07T09:16:29.085Z,18.45
2022-10-07T09:18:56.242Z,18.54
2022-10-07T09:21:23.660Z,18.54
2022-10-07T09:23:47.222Z,18.64
2022-10-07T09:26:12.219Z,18.61
2022-10-07T09:28:35.948Z,18.77
2022-10-07T09:31:00.710Z,18.77
2022-10-07T09:33:25.112Z,18.72
2022-10-07T09:35:57.581Z,18.99
2022-10-07T09:38:31.849Z,19.10
2022-10-07T09:41:16.933Z,19.02
2022-10-07T09:43:52.407Z,19.13
2022-10-07T09:46:31.572Z,19.23
2022-10-07T09:48:55.510Z,19.31
2022-10-07T09:51:25.629Z,19.10
2022-10-07T09:53:57.942Z,19.06
2022-10-07T09:56:39.431Z,18.98
2022-10-07T09:59:24.321Z,19.03
2022-10-07T10:01:52.845Z,19.23
2022-10-07T10:04:17.356Z,19.28
2022-10-07T10:06:49.347Z,19.37
2022-10-07T12:31:16.577Z,21.12
2022-10-07T12:33:45.965Z,21.13
2022-10-07T12:36:26.525Z,21.15
2022-10-07T12:38:56.864Z,21.40
2022-10-07T12:41:39.772Z,21.54
2022-10-07T12:44:08.112Z,21.36
2022-10-07T12:46:38.025Z,21.33
2022-10-07T12:49:06.438Z,21.32
2022-10-07T12:51:37.683Z,21.43
2022-10-07T12:54:01.208Z,21.49
2022-10-07T12:56:27.999Z,21.50
2022-10-07T12:59:21.177Z,21.67
2022-10-07T13:02:14.993Z,21.71
2022-10-07T13:04:56.117Z,21.64
2022-10-07T13:07:56.151Z,21.42
2022-10-07T13:10:30.932Z,21.28
2022-10-07T13:13:01.716Z,21.45
2022-10-07T13:15:41.359Z,21.32
2022-10-07T13:18:16.801Z,21.49
2022-10-07T13:21:10.608Z,21.32
2022-10-07T13:23:34.153Z,21.32
2022-10-07T13:25:59.698Z,21.33
2022-10-07T13:28:25.715Z,21.53
2022-10-07T13:30:50.461Z,21.38
2022-10-07T13:33:15.674Z,21.43
2022-10-07T13:35:39.793Z,21.38
2022-10-07T13:38:02.628Z,21.36
2022-10-07T13:40:30.613Z,21.29
2022-10-07T13:42:59.764Z,21.28
2022-10-07T13:45:23.247Z,21.38
2022-10-07T13:47:47.127Z,21.26
2022-10-07T13:50:18.560Z,21.35
2022-10-07T13:52:47.054Z,21.29
2022-10-07T13:55:26.676Z,21.18
2022-10-07T13:57:50.564Z,21.11
2022-10-07T14:00:13.870Z,21.01
2022-10-07T14:02:40.111Z,21.15
2022-10-07T14:05:18.606Z,21.08
2022-10-07T14:07:41.917Z,20.96
2022-10-07T14:10:09.935Z,21.12
2022-10-07T14:12:42.365Z,21.09
2022-10-07T14:15:06.729Z,21.18
2022-10-07T14:17:47.677Z,21.11
2022-10-07T14:20:30.254Z,21.01
2022-10-07T14:22:56.675Z,20.88
2022-10-07T14:25:22.264Z,20.81
2022-10-07T14:27:55.142Z,20.94
2022-10-07T14:31:27.327Z,20.77
2022-10-07T14:34:29.247Z,20.71
2022-10-07T14:37:09.495Z,20.53
2022-10-07T14:39:42.409Z,20.57
2022-10-07T14:42:10.132Z,20.44
2022-10-07T14:44:32.810Z,20.36
2022-10-07T14:47:13.793Z,20.40
2022-10-07T14:49:36.525Z,20.27
2022-10-07T14:52:00.352Z,20.13
2022-10-07T14:54:22.946Z,20.06
2022-10-07T14:56:45.570Z,20.02
2022-10-07T14:59:14.934Z,20.04
2022-10-07T15:01:37.506Z,19.95
2022-10-07T15:04:00.266Z,19.92
2022-10-07T15:06:22.997Z,19.85
2022-10-07T15:08:46.747Z,19.82
2022-10-07T15:11:09.987Z,19.75
2022-10-07T15:13:32.737Z,19.77
2022-10-07T15:15:55.637Z,19.61
2022-10-07T15:18:18.199Z,19.57
2022-10-07T15:20:41.116Z,19.47
2022-10-07T15:23:03.981Z,19.44
2022-10-07T15:25:27.099Z,19.31
2022-10-07T15:27:50.027Z,19.24
2022-10-07T15:30:13.160Z,19.09
2022-10-07T15:32:35.886Z,18.99
2022-10-07T15:34:58.844Z,18.99
2022-10-07T15:37:22.599Z,18.88
2022-10-07T15:39:45.236Z,18.81
2022-10-07T15:42:08.221Z,18.75
2022-10-07T15:44:30.982Z,18.71
2022-10-07T15:46:54.710Z,18.72
2022-10-07T15:49:17.210Z,18.69
2022-10-07T15:51:40.102Z,18.71
2022-10-07T15:54:03.664Z,18.66
2022-10-07T15:56:26.171Z,18.49
2022-10-07T15:58:49.076Z,18.33
2022-10-07T16:01:12.454Z,18.26
2022-10-07T16:03:40.574Z,18.16
2022-10-07T16:06:03.243Z,18.13
2022-10-07T16:08:26.510Z,18.11
2022-10-07T16:10:49.086Z,18.04
2022-10-07T16:13:11.957Z,18.03
2022-10-07T16:15:35.846Z,17.93
2022-10-07T16:17:58.592Z,17.87
2022-10-07T16:20:21.504Z,17.85
2022-10-07T16:22:44.268Z,17.78
2022-10-07T16:25:07.286Z,17.78
2022-10-07T16:27:50.063Z,17.65
2022-10-07T16:30:31.669Z,17.52
2022-10-07T16:32:54.280Z,17.48
2022-10-07T16:35:18.700Z,17.35
2022-10-07T16:37:41.537Z,17.24
2022-10-07T16:40:04.557Z,17.17
2022-10-07T16:42:28.236Z,17.03
2022-10-07T16:44:51.388Z,17.08
2022-10-07T16:47:14.089Z,17.03
2022-10-07T16:49:36.911Z,16.99
2022-10-07T16:51:59.686Z,17.02
2022-10-07T16:54:22.331Z,16.99
2022-10-07T16:56:48.134Z,16.97
2022-10-07T16:59:12.178Z,16.93
2022-10-07T17:01:35.132Z,16.81
2022-10-07T17:04:00.497Z,16.81
2022-10-07T17:06:24.963Z,16.80
2022-10-07T17:08:49.166Z,16.72
2022-10-07T17:11:28.699Z,16.76
2022-10-07T17:13:51.783Z,16.65
2022-10-07T17:16:16.697Z,16.63
2022-10-07T17:18:39.292Z,16.51
2022-10-07T17:21:01.899Z,16.51
2022-10-07T17:23:27.264Z,16.44
2022-10-07T17:25:50.226Z,16.39
2022-10-07T17:28:16.371Z,16.39
2022-10-07T17:30:39.388Z,16.32
2022-10-07T17:33:01.939Z,16.25
2022-10-07T17:35:24.617Z,16.17
2022-10-07T17:37:49.383Z,16.17
2022-10-07T17:40:12.021Z,16.14
2022-10-07T17:42:35.383Z,16.14
2022-10-07T17:44:58.178Z,16.12
2022-10-07T17:47:20.794Z,16.10
2022-10-07T17:49:43.571Z,16.10
2022-10-07T17:52:06.943Z,16.11
2022-10-07T17:54:29.506Z,16.07
2022-10-07T17:56:52.645Z,16.02
2022-10-07T17:59:16.037Z,15.91
2022-10-07T18:01:38.960Z,15.87
2022-10-07T18:04:07.611Z,15.81
2022-10-07T18:06:33.616Z,15.80
2022-10-07T18:08:59.157Z,15.77
2022-10-07T18:11:22.270Z,15.71
2022-10-07T18:14:03.899Z,15.64
2022-10-07T18:16:27.047Z,15.63
2022-10-07T18:18:56.495Z,15.59
2022-10-07T18:21:20.371Z,15.59
2022-10-07T18:23:43.895Z,15.66
2022-10-07T18:26:11.676Z,15.57
2022-10-07T18:28:35.466Z,15.52
2022-10-07T18:30:58.588Z,15.54
2022-10-07T18:33:21.279Z,15.53
2022-10-07T18:35:43.953Z,15.52
2022-10-07T18:38:06.791Z,15.49
2022-10-07T18:40:30.655Z,15.36
2022-10-07T18:42:53.218Z,15.38
2022-10-07T18:45:16.264Z,15.25
2022-10-07T18:47:38.739Z,15.28
2022-10-07T18:50:01.656Z,15.19
2022-10-07T18:52:24.260Z,15.19
2022-10-07T18:54:46.969Z,15.12
2022-10-07T18:57:09.516Z,15.09
2022-10-07T18:59:32.727Z,15.04
2022-10-07T19:01:55.479Z,14.99
2022-10-07T19:04:19.186Z,14.97
2022-10-07T19:06:46.456Z,14.99
2022-10-07T19:09:14.182Z,15.01
2022-10-07T19:11:36.789Z,14.98
2022-10-07T19:14:00.073Z,14.98
2022-10-07T19:16:29.600Z,14.87
2022-10-07T19:18:54.544Z,14.91
2022-10-07T19:21:20.187Z,14.91
2022-10-07T19:23:43.609Z,14.87
2022-10-07T19:26:07.111Z,14.85
2022-10-07T19:28:31.096Z,14.83
2022-10-07T19:30:55.184Z,14.80
2022-10-07T19:33:17.861Z,14.76
2022-10-07T19:35:40.486Z,14.78
2022-10-07T19:38:05.987Z,14.64
2022-10-07T19:40:29.469Z,14.61
2022-10-07T19:42:52.384Z,14.55
2022-10-07T19:45:15.500Z,14.47
2022-10-07T19:47:38.085Z,14.49
2022-10-07T19:50:01.996Z,14.39
2022-10-07T19:52:27.429Z,14.37
2022-10-07T19:54:51.550Z,14.36
2022-10-07T19:57:14.323Z,14.41
2022-10-07T19:59:37.503Z,14.43
2022-10-07T20:02:01.233Z,14.33
2022-10-07T20:04:24.661Z,14.30
2022-10-07T20:06:47.684Z,14.29
2022-10-07T20:09:19.628Z,14.23
2022-10-07T20:11:43.139Z,14.22
2022-10-07T20:14:06.667Z,14.22
2022-10-07T20:16:31.125Z,14.18
2022-10-07T20:19:02.203Z,14.19
2022-10-07T20:21:24.843Z,14.15
2022-10-07T20:23:48.216Z,14.13
2022-10-07T20:26:16.053Z,14.11
2022-10-07T20:28:39.092Z,14.13
2022-10-07T20:31:10.388Z,14.09
2022-10-07T20:33:43.869Z,14.08
2022-10-07T20:36:07.538Z,14.04
2022-10-07T20:38:30.092Z,14.06
2022-10-07T20:41:11.486Z,14.02
2022-10-07T20:43:34.121Z,13.95
2022-10-07T20:45:56.669Z,13.89
2022-10-07T20:48:19.225Z,13.92
2022-10-07T20:50:42.254Z,13.86
2022-10-07T20:53:04.933Z,13.84
2022-10-07T20:55:27.830Z,13.85
2022-10-07T20:57:51.215Z,13.84
2022-10-07T21:00:16.858Z,13.73
2022-10-07T21:02:39.582Z,13.79
2022-10-07T21:05:02.135Z,13.68
2022-10-07T21:07:24.685Z,13.68
2022-10-07T21:09:47.935Z,13.70
2022-10-07T21:12:13.840Z,13.70
2022-10-07T21:14:36.761Z,13.74
2022-10-07T21:17:00.099Z,13.71
2022-10-07T21:19:23.289Z,13.65
2022-10-07T21:21:46.143Z,13.50
2022-10-07T21:24:08.985Z,13.63
2022-10-07T21:26:31.625Z,13.58
2022-10-07T21:28:54.167Z,13.54
2022-10-07T21:31:20.046Z,13.54
2022-10-07T21:33:44.183Z,13.46
2022-10-07T21:36:10.651Z,13.46
2022-10-07T21:38:34.254Z,13.36
2022-10-07T21:41:00.336Z,13.23
2022-10-07T21:43:23.006Z,13.19
2022-10-07T21:45:45.675Z,13.26
2022-10-07T21:48:08.248Z,13.27
2022-10-07T21:50:30.772Z,13.27
2022-10-07T21:52:53.215Z,13.22
2022-10-07T21:55:15.972Z,13.10
2022-10-07T21:57:41.831Z,13.19
2022-10-07T22:00:04.963Z,13.03
2022-10-07T22:02:34.675Z,13.12
2022-10-07T22:04:57.719Z,13.09
2022-10-07T22:07:58.615Z,13.05
2022-10-07T22:10:21.173Z,13.06
2022-10-07T22:12:44.837Z,13.00
2022-10-07T22:15:08.288Z,13.10
2022-10-07T22:17:34.916Z,13.07
2022-10-07T22:19:58.803Z,12.98
2022-10-07T22:22:21.358Z,12.84
2022-10-07T22:24:43.916Z,12.91
2022-10-07T22:27:06.463Z,13.02
2022-10-07T22:29:29.694Z,12.98
2022-10-07T22:31:52.745Z,13.05
2022-10-07T22:34:34.254Z,13.07
2022-10-07T22:36:58.191Z,13.10
2022-10-07T22:39:20.732Z,12.89
2022-10-07T22:41:43.385Z,12.81
2022-10-07T22:44:05.907Z,12.82
2022-10-07T22:46:28.838Z,12.81
2022-10-07T22:48:53.833Z,12.77
2022-10-07T22:51:17.062Z,12.72
2022-10-07T22:53:48.163Z,12.62
2022-10-07T22:56:16.462Z,12.65
2022-10-07T22:58:41.200Z,12.58
2022-10-07T23:01:04.646Z,12.55
2022-10-07T23:03:28.499Z,12.58
2022-10-07T23:05:51.413Z,12.58
2022-10-07T23:08:13.983Z,12.69
2022-10-07T23:10:36.680Z,12.61
2022-10-07T23:13:03.592Z,12.71
2022-10-07T23:15:26.284Z,12.57
2022-10-07T23:17:49.542Z,12.62
2022-10-07T23:20:12.172Z,12.61
2022-10-07T23:22:35.448Z,12.64
2022-10-07T23:24:58.242Z,12.55
2022-10-07T23:27:20.807Z,12.57
2022-10-07T23:29:43.492Z,12.61
2022-10-07T23:32:05.941Z,12.41
2022-10-07T23:34:28.532Z,12.34
2022-10-07T23:36:55.155Z,12.34
2022-10-07T23:39:19.851Z,12.30
2022-10-07T23:41:42.368Z,12.34
2022-10-07T23:44:05.446Z,12.30
2022-10-07T23:46:29.637Z,12.29
2022-10-07T23:48:53.052Z,12.26
2022-10-07T23:51:21.413Z,12.23
2022-10-07T23:53:44.665Z,12.21
2022-10-07T23:56:07.837Z,12.14
2022-10-07T23:58:31.922Z,12.16
